Time;durP1;ratioP1;P1;durP2;ratioP2;P2;SDS_P1;SDS_P2;PMS_P1;PMS_P2;Temp;Humidity;BMP_temperature;BMP_pressure;BME280_temperature;BME280_humidity;BME280_pressure;Samples;Min_cycle;Max_cycle;Signal;HPM_P1;HPM_P2
2023/09/17 00:00:55;;;;;;;0.10;0.10;;;;;;;21.01;100.00;98887.69;5113540;28;20332;-57
2023/09/17 00:03:42;;;;;;;0.10;0.10;;;;;;;20.98;100.00;98884.50;5114670;28;20229;-57
2023/09/17 00:06:30;;;;;;;0.10;0.10;;;;;;;21.07;100.00;98880.78;5114837;28;20193;-57
2023/09/17 00:09:17;;;;;;;0.10;0.10;;;;;;;21.00;100.00;98880.59;5114715;28;20672;-57
2023/09/17 00:12:05;;;;;;;0.10;0.10;;;;;;;20.84;100.00;98897.66;5114599;28;20193;-57
2023/09/17 00:14:52;;;;;;;0.10;0.10;;;;;;;21.02;100.00;98894.75;5113169;28;20675;-56
2023/09/17 00:17:39;;;;;;;0.10;0.10;;;;;;;20.95;100.00;98899.16;5114546;28;20198;-57
2023/09/17 00:20:26;;;;;;;0.10;0.10;;;;;;;20.80;100.00;98890.06;5114495;28;20209;-56
2023/09/17 00:23:14;;;;;;;0.10;0.10;;;;;;;20.72;100.00;98898.16;5113997;28;20226;-57
2023/09/17 00:26:01;;;;;;;0.10;0.10;;;;;;;20.80;100.00;98888.22;5114293;28;20232;-56
2023/09/17 00:28:49;;;;;;;0.10;0.10;;;;;;;20.72;100.00;98896.28;5114252;28;20193;-56
2023/09/17 00:31:37;;;;;;;0.17;0.17;;;;;;;20.79;100.00;98893.78;5112957;28;20814;-56
2023/09/17 00:34:25;;;;;;;0.10;0.10;;;;;;;20.79;100.00;98889.06;5114020;28;20182;-56
2023/09/17 00:37:12;;;;;;;0.10;0.10;;;;;;;20.79;100.00;98883.00;5113984;28;20308;-57
2023/09/17 00:40:09;;;;;;;0.10;0.10;;;;;;;20.71;100.00;98886.53;5114093;28;20303;-56
2023/09/17 00:42:57;;;;;;;0.10;0.10;;;;;;;20.52;100.00;98884.19;5114028;28;20206;-57
2023/09/17 00:45:44;;;;;;;0.10;0.10;;;;;;;20.50;100.00;98895.13;5112448;28;20190;-56
2023/09/17 00:48:32;;;;;;;0.10;0.10;;;;;;;20.51;100.00;98893.28;5113317;28;20209;-57
2023/09/17 00:51:20;;;;;;;0.10;0.10;;;;;;;20.53;100.00;98891.25;5113856;28;20224;-57
2023/09/17 00:54:09;;;;;;;0.10;0.10;;;;;;;20.55;100.00;98895.44;5113617;28;20198;-57
2023/09/17 00:56:58;;;;;;;0.10;0.10;;;;;;;20.55;100.00;98895.44;5113888;28;20198;-57
2023/09/17 00:59:45;;;;;;;0.10;0.10;;;;;;;20.46;100.00;98882.16;5112338;28;20708;-57
2023/09/17 01:02:34;;;;;;;0.10;0.10;;;;;;;20.42;100.00;98878.09;5113624;28;20193;-56
2023/09/17 01:05:21;;;;;;;0.10;0.10;;;;;;;20.46;100.00;98882.16;5113439;28;20218;-56
2023/09/17 01:08:09;;;;;;;0.10;0.10;;;;;;;20.43;100.00;98880.66;5113713;28;20190;-57
2023/09/17 01:10:56;;;;;;;0.10;0.10;;;;;;;20.37;100.00;98881.31;5113657;28;20202;-57
2023/09/17 01:13:49;;;;;;;0.10;0.10;;;;;;;20.44;100.00;98882.34;5113476;28;20323;-57
2023/09/17 01:16:36;;;;;;;0.10;0.10;;;;;;;20.29;100.00;98887.53;5111245;28;20202;-57
2023/09/17 01:19:26;;;;;;;0.10;0.10;;;;;;;20.20;100.00;98888.53;5113364;28;20251;-57
2023/09/17 01:22:21;;;;;;;0.10;0.10;;;;;;;20.15;100.00;98885.47;5112323;28;20316;-57
2023/09/17 01:25:23;;;;;;;0.10;0.10;;;;;;;20.19;100.00;98894.06;5113097;28;20333;-57
2023/09/17 01:28:13;;;;;;;0.10;0.10;;;;;;;20.11;100.00;98907.50;5113329;28;20194;-57
2023/09/17 01:31:00;;;;;;;0.10;0.10;;;;;;;20.01;100.00;98891.50;5110955;28;20198;-57
2023/09/17 01:33:48;;;;;;;0.10;0.10;;;;;;;20.00;100.00;98897.91;5112161;28;20570;-56
2023/09/17 01:36:40;;;;;;;0.10;0.10;;;;;;;20.00;100.00;98900.59;5113298;28;20232;-57
2023/09/17 01:39:32;;;;;;;0.10;0.10;;;;;;;20.00;100.00;98906.81;5113308;28;20201;-57
2023/09/17 01:42:20;;;;;;;0.10;0.10;;;;;;;19.94;100.00;98906.59;5112400;28;20252;-57
2023/09/17 01:45:12;;;;;;;0.10;0.10;;;;;;;20.07;100.00;98906.13;5110744;28;20712;-57
2023/09/17 01:48:00;;;;;;;0.10;0.10;;;;;;;20.00;100.00;98906.81;5112206;28;20209;-57
2023/09/17 01:50:50;;;;;;;0.10;0.10;;;;;;;19.81;100.00;98912.47;5113145;28;20253;-56
2023/09/17 01:53:37;;;;;;;0.10;0.10;;;;;;;19.77;100.00;98905.72;5113027;28;20350;-57
2023/09/17 01:56:24;;;;;;;0.10;0.10;;;;;;;19.78;100.00;98911.91;5113107;28;20239;-57
2023/09/17 01:59:11;;;;;;;0.10;0.10;;;;;;;19.66;100.00;98906.00;5114740;28;20190;-56
2023/09/17 02:01:59;;;;;;;0.10;0.10;;;;;;;19.72;100.00;98906.22;5116302;28;20197;-56
2023/09/17 02:04:46;;;;;;;0.10;0.10;;;;;;;19.78;100.00;98912.75;5116804;28;20295;-57
2023/09/17 02:07:33;;;;;;;0.10;0.10;;;;;;;19.62;100.00;98910.03;5117040;28;20236;-57
2023/09/17 02:10:20;;;;;;;0.10;0.10;;;;;;;19.61;100.00;98914.56;5117036;28;20671;-57
2023/09/17 02:13:07;;;;;;;0.10;0.10;;;;;;;19.67;100.00;98913.06;5116846;28;20597;-57
2023/09/17 02:15:54;;;;;;;0.10;0.10;;;;;;;19.66;100.00;98908.69;5114468;28;20683;-57
2023/09/17 02:18:42;;;;;;;0.10;0.10;;;;;;;19.71;100.00;98901.84;5115854;28;20283;-57
2023/09/17 02:21:29;;;;;;;0.20;0.20;;;;;;;19.64;100.00;98908.03;5115745;28;20198;-57
2023/09/17 02:24:16;;;;;;;0.10;0.10;;;;;;;19.69;100.00;98908.38;5116734;28;20194;-57
2023/09/17 02:27:03;;;;;;;0.10;0.10;;;;;;;19.60;100.00;98899.44;5116710;28;20198;-56
2023/09/17 02:29:50;;;;;;;0.10;0.10;;;;;;;19.60;100.00;98904.00;5115284;28;20202;-56
2023/09/17 02:32:38;;;;;;;0.10;0.10;;;;;;;19.62;100.00;98902.81;5116528;28;20194;-57
2023/09/17 02:35:27;;;;;;;0.10;0.10;;;;;;;19.60;100.00;98895.94;5116560;28;20189;-57
2023/09/17 02:38:13;;;;;;;0.10;0.10;;;;;;;19.42;100.00;98894.13;5115422;28;20271;-57
2023/09/17 02:41:02;;;;;;;0.10;0.10;;;;;;;19.33;100.00;98894.25;5116364;28;20194;-57
2023/09/17 02:43:49;;;;;;;0.10;0.10;;;;;;;19.31;100.00;98888.22;5116319;28;20208;-57
2023/09/17 02:46:36;;;;;;;0.10;0.10;;;;;;;19.43;100.00;98876.16;5114832;28;20255;-57
2023/09/17 02:49:23;;;;;;;0.20;0.20;;;;;;;19.37;100.00;98879.50;5116271;28;20194;-56
2023/09/17 02:52:11;;;;;;;0.10;0.10;;;;;;;19.41;100.00;98873.66;5115379;28;20194;-57
2023/09/17 02:54:58;;;;;;;0.10;0.10;;;;;;;19.34;100.00;98877.13;5114975;28;20308;-56
2023/09/17 02:57:45;;;;;;;0.10;0.10;;;;;;;19.26;100.00;98874.41;5115142;28;20258;-57
2023/09/17 03:00:32;;;;;;;0.10;0.10;;;;;;;19.29;100.00;98874.91;5114714;28;20189;-57
2023/09/17 03:03:19;;;;;;;0.20;0.20;;;;;;;19.22;100.00;98873.06;5114890;28;20198;-57
2023/09/17 03:06:06;;;;;;;0.10;0.10;;;;;;;19.37;100.00;98869.59;5115560;28;20332;-57
2023/09/17 03:08:56;;;;;;;0.10;0.10;;;;;;;19.40;100.00;98876.50;5114781;28;20194;-57
2023/09/17 03:11:43;;;;;;;0.10;0.10;;;;;;;19.33;100.00;98886.19;5115044;28;20186;-57
2023/09/17 03:14:30;;;;;;;0.10;0.10;;;;;;;19.24;100.00;98876.41;5114558;28;20206;-57
2023/09/17 03:17:17;;;;;;;0.10;0.10;;;;;;;19.24;100.00;98877.25;5114645;28;20206;-56
2023/09/17 03:20:13;;;;;;;0.10;0.10;;;;;;;19.31;100.00;98882.84;5114426;28;20202;-57
2023/09/17 03:23:02;;;;;;;0.10;0.10;;;;;;;19.39;100.00;98875.63;5115329;28;20238;-57
2023/09/17 03:25:51;;;;;;;0.10;0.10;;;;;;;19.51;100.00;98881.59;5114381;28;20218;-57
2023/09/17 03:28:39;;;;;;;0.10;0.10;;;;;;;19.41;100.00;98873.66;5114280;28;20256;-57
2023/09/17 03:31:26;;;;;;;0.10;0.10;;;;;;;19.58;100.00;98884.47;5114096;28;20307;-57
2023/09/17 03:34:14;;;;;;;0.10;0.10;;;;;;;19.49;100.00;98880.03;5114378;28;20271;-57
2023/09/17 03:37:01;;;;;;;0.20;0.20;;;;;;;19.49;100.00;98885.41;5114239;28;20228;-57
2023/09/17 03:40:07;;;;;;;0.10;0.10;;;;;;;19.41;100.00;98873.66;5115236;28;20263;-57
2023/09/17 03:42:57;;;;;;;0.10;0.10;;;;;;;19.23;100.00;98889.00;5113941;28;20256;-56
2023/09/17 03:45:45;;;;;;;0.10;0.10;;;;;;;19.26;100.00;98883.31;5112574;28;20225;-57
2023/09/17 03:48:32;;;;;;;0.10;0.10;;;;;;;19.38;100.00;98890.06;5114100;28;20198;-57
2023/09/17 03:51:20;;;;;;;0.10;0.10;;;;;;;19.27;100.00;98889.50;5114887;28;20194;-57
2023/09/17 03:54:07;;;;;;;0.10;0.10;;;;;;;19.25;100.00;98895.06;5113993;28;20197;-56
2023/09/17 03:56:53;;;;;;;0.20;0.20;;;;;;;19.37;100.00;98904.50;5113897;28;20251;-57
2023/09/17 03:59:42;;;;;;;0.10;0.10;;;;;;;19.30;100.00;98895.44;5112343;28;20210;-57
2023/09/17 04:02:29;;;;;;;0.10;0.10;;;;;;;19.29;100.00;98898.25;5113799;28;20202;-57
2023/09/17 04:05:16;;;;;;;0.17;0.17;;;;;;;19.17;100.00;98895.00;5114737;28;20206;-56
2023/09/17 04:08:03;;;;;;;0.20;0.20;;;;;;;19.16;100.00;98893.31;5114600;28;20194;-57
2023/09/17 04:10:54;;;;;;;0.10;0.10;;;;;;;19.19;100.00;98900.22;5113606;28;20267;-57
2023/09/17 04:13:41;;;;;;;0.10;0.10;;;;;;;19.23;100.00;98897.06;5114684;28;20209;-57
2023/09/17 04:16:29;;;;;;;0.10;0.10;;;;;;;19.18;100.00;98896.69;5112166;28;20210;-56
2023/09/17 04:19:16;;;;;;;0.10;0.10;;;;;;;19.26;100.00;98895.88;5114522;28;20190;-57
2023/09/17 04:22:04;;;;;;;0.10;0.10;;;;;;;19.36;100.00;98896.63;5113097;28;20201;-56
2023/09/17 04:24:51;;;;;;;0.10;0.10;;;;;;;19.47;100.00;98887.44;5114398;28;20320;-57
2023/09/17 04:27:41;;;;;;;0.10;0.10;;;;;;;19.32;100.00;98885.34;5114370;28;20249;-57
2023/09/17 04:30:31;;;;;;;0.10;0.10;;;;;;;19.24;100.00;98889.84;5111956;28;20292;-56
2023/09/17 04:33:20;;;;;;;0.10;0.10;;;;;;;19.32;100.00;98892.56;5114219;28;20189;-57
2023/09/17 04:36:07;;;;;;;0.10;0.10;;;;;;;19.35;100.00;98897.63;5114191;28;20198;-57
2023/09/17 04:38:54;;;;;;;0.10;0.10;;;;;;;19.42;100.00;98893.28;5113023;28;20194;-57
2023/09/17 04:41:41;;;;;;;0.10;0.10;;;;;;;19.45;100.00;98895.66;5113180;28;20194;-57
2023/09/17 04:44:29;;;;;;;0.10;0.10;;;;;;;19.22;100.00;98897.22;5111766;28;20186;-57
2023/09/17 04:47:15;;;;;;;0.10;0.10;;;;;;;19.27;100.00;98895.72;5112750;28;20244;-57
2023/09/17 04:50:07;;;;;;;0.10;0.10;;;;;;;19.29;100.00;98901.78;5112876;28;20232;-56
2023/09/17 04:52:55;;;;;;;0.10;0.10;;;;;;;19.30;100.00;98905.31;5112908;28;20664;-56
2023/09/17 04:55:44;;;;;;;0.10;0.10;;;;;;;19.31;100.00;98905.16;5112807;28;20186;-57
2023/09/17 04:58:31;;;;;;;0.10;0.10;;;;;;;19.34;100.00;98909.38;5112839;28;20237;-57
2023/09/17 05:01:20;;;;;;;0.10;0.10;;;;;;;19.47;100.00;98908.91;5111422;28;20194;-57
2023/09/17 05:04:07;;;;;;;0.10;0.10;;;;;;;19.46;100.00;98905.38;5112707;28;20313;-57
2023/09/17 05:06:55;;;;;;;0.10;0.10;;;;;;;19.38;100.00;98898.13;5112298;28;20229;-56
2023/09/17 05:09:44;;;;;;;0.10;0.10;;;;;;;19.32;100.00;98901.47;5112693;28;20201;-57
2023/09/17 05:12:31;;;;;;;0.10;0.10;;;;;;;19.37;100.00;98906.34;5112532;28;20201;-57
2023/09/17 05:15:18;;;;;;;0.10;0.10;;;;;;;19.29;100.00;98906.31;5112262;28;20195;-57
2023/09/17 05:18:09;;;;;;;0.10;0.10;;;;;;;19.14;100.00;98911.44;5112451;28;20220;-57
2023/09/17 05:20:59;;;;;;;0.10;0.10;;;;;;;19.06;100.00;98908.69;5112225;28;20198;-57
2023/09/17 05:23:48;;;;;;;0.10;0.10;;;;;;;19.17;100.00;98914.63;5113033;28;20225;-57
2023/09/17 05:26:35;;;;;;;0.10;0.10;;;;;;;19.17;100.00;98909.25;5112994;28;20221;-57
2023/09/17 05:29:22;;;;;;;0.10;0.10;;;;;;;19.23;100.00;98915.03;5111648;28;20327;-56
2023/09/17 05:32:09;;;;;;;0.10;0.10;;;;;;;19.21;100.00;98925.94;5112283;28;20186;-56
2023/09/17 05:34:58;;;;;;;0.10;0.10;;;;;;;19.25;100.00;98921.06;5112148;28;20320;-56
2023/09/17 05:37:45;;;;;;;0.10;0.10;;;;;;;19.27;100.00;98914.53;5113235;28;20207;-57
2023/09/17 05:40:35;;;;;;;0.10;0.10;;;;;;;19.42;100.00;98910.25;5113295;28;20190;-57
2023/09/17 05:43:24;;;;;;;0.10;0.10;;;;;;;19.56;100.00;98916.03;5112301;28;20206;-57
2023/09/17 05:46:11;;;;;;;0.10;0.10;;;;;;;19.55;100.00;98911.66;5110700;28;20373;-57
2023/09/17 05:49:01;;;;;;;0.10;0.10;;;;;;;19.68;100.00;98907.53;5112171;28;20190;-56
2023/09/17 05:51:48;;;;;;;0.10;0.10;;;;;;;19.67;100.00;98905.00;5112184;28;20240;-57
2023/09/17 05:54:36;;;;;;;0.10;0.10;;;;;;;19.50;100.00;98916.69;5112163;28;20202;-58
2023/09/17 05:57:24;;;;;;;0.10;0.10;;;;;;;19.38;100.00;98911.56;5113089;28;20197;-57
2023/09/17 06:00:12;;;;;;;0.10;0.10;;;;;;;19.44;100.00;98910.94;5110906;28;20220;-58
2023/09/17 06:03:01;;;;;;;0.10;0.10;;;;;;;19.48;100.00;98921.34;5113080;28;20198;-58
2023/09/17 06:05:49;;;;;;;0.10;0.10;;;;;;;19.48;100.00;98913.28;5112789;28;20257;-58
2023/09/17 06:08:36;;;;;;;0.10;0.10;;;;;;;19.50;100.00;98914.00;5113110;28;20204;-58
2023/09/17 06:11:23;;;;;;;0.10;0.10;;;;;;;19.51;100.00;98918.34;5112773;28;20274;-58
2023/09/17 06:14:11;;;;;;;0.10;0.10;;;;;;;19.55;100.00;98919.69;5112057;28;20198;-58
2023/09/17 06:16:58;;;;;;;0.10;0.10;;;;;;;19.62;100.00;98920.78;5111933;28;20305;-59
2023/09/17 06:19:45;;;;;;;0.10;0.10;;;;;;;19.71;100.00;98923.34;5112546;28;20201;-58
2023/09/17 06:22:33;;;;;;;0.10;0.10;;;;;;;19.68;100.00;98918.28;5111733;28;20230;-58
2023/09/17 06:25:23;;;;;;;0.10;0.10;;;;;;;19.72;100.00;98919.66;5111853;28;20202;-58
2023/09/17 06:28:10;;;;;;;0.10;0.10;;;;;;;19.65;100.00;98925.81;5112356;28;20238;-58
2023/09/17 06:30:58;;;;;;;0.10;0.10;;;;;;;19.79;100.00;98935.97;5110402;28;20202;-58
2023/09/17 06:33:45;;;;;;;0.10;0.10;;;;;;;19.86;100.00;98933.47;5112804;28;20194;-58
2023/09/17 06:36:32;;;;;;;0.10;0.10;;;;;;;19.86;100.00;98933.47;5111704;28;20194;-58
2023/09/17 06:39:19;;;;;;;0.00;0.00;;;;;;;19.97;100.00;98931.31;5112701;28;20194;-58
2023/09/17 06:42:06;;;;;;;0.10;0.10;;;;;;;20.15;100.00;98933.03;5111506;28;20206;-58
2023/09/17 06:44:53;;;;;;;0.10;0.10;;;;;;;20.13;100.00;98935.91;5111666;28;20295;-58
2023/09/17 06:47:42;;;;;;;0.10;0.10;;;;;;;20.18;100.00;98930.88;5116204;28;20218;-58
2023/09/17 06:50:28;;;;;;;0.10;0.10;;;;;;;20.29;100.00;98919.81;5116235;28;20236;-58
2023/09/17 06:53:16;;;;;;;0.10;0.10;;;;;;;20.41;100.00;98922.16;5116046;28;20201;-58
2023/09/17 06:56:03;;;;;;;0.10;0.10;;;;;;;20.62;100.00;98916.31;5116042;28;20194;-58
2023/09/17 06:58:50;;;;;;;0.10;0.10;;;;;;;20.70;100.00;98917.16;5116077;28;20333;-58
2023/09/17 07:01:39;;;;;;;0.10;0.10;;;;;;;20.85;100.00;98917.34;5114755;28;20231;-58
2023/09/17 07:04:27;;;;;;;0.10;0.10;;;;;;;21.13;100.00;98913.25;5115996;28;20193;-58
2023/09/17 07:07:14;;;;;;;0.10;0.10;;;;;;;21.11;100.00;98914.41;5115633;28;20701;-58
2023/09/17 07:10:00;;;;;;;0.10;0.10;;;;;;;20.92;100.00;98910.25;5115935;28;20194;-58
2023/09/17 07:12:47;;;;;;;0.10;0.10;;;;;;;21.11;100.00;98912.56;5115738;28;20194;-58
2023/09/17 07:15:34;;;;;;;0.10;0.10;;;;;;;20.93;100.00;98917.31;5114499;28;20198;-58
2023/09/17 07:18:21;;;;;;;0.10;0.10;;;;;;;20.86;100.00;98919.03;5115613;28;20198;-58
2023/09/17 07:21:09;;;;;;;0.10;0.10;;;;;;;20.93;100.00;98914.63;5115560;28;20210;-58
2023/09/17 07:23:56;;;;;;;0.10;0.10;;;;;;;20.80;100.00;98915.13;5115102;28;20237;-58
2023/09/17 07:26:43;;;;;;;0.10;0.10;;;;;;;20.72;100.00;98920.53;5115539;28;20672;-58
2023/09/17 07:29:30;;;;;;;0.20;0.20;;;;;;;20.82;100.00;98909.56;5114216;28;20251;-58
2023/09/17 07:32:17;;;;;;;0.10;0.10;;;;;;;20.86;100.00;98913.63;5115435;28;20194;-57
2023/09/17 07:35:05;;;;;;;0.10;0.10;;;;;;;20.85;100.00;98909.25;5115404;28;20680;-57
2023/09/17 07:37:53;;;;;;;0.10;0.10;;;;;;;21.05;100.00;98915.97;5115211;28;20222;-58
2023/09/17 07:40:40;;;;;;;0.10;0.10;;;;;;;21.03;100.00;98915.28;5114930;28;20320;-58
2023/09/17 07:43:27;;;;;;;0.10;0.10;;;;;;;21.23;100.00;98926.53;5115123;28;20190;-57
2023/09/17 07:46:14;;;;;;;0.10;0.10;;;;;;;21.31;100.00;98928.38;5113558;28;20297;-58
2023/09/17 07:49:01;;;;;;;0.10;0.10;;;;;;;21.57;100.00;98923.59;5114971;28;20236;-58
2023/09/17 07:51:51;;;;;;;0.10;0.10;;;;;;;21.72;100.00;98929.09;5114841;28;20198;-58
2023/09/17 07:54:40;;;;;;;0.10;0.10;;;;;;;21.94;100.00;98922.09;5114021;28;20244;-58
2023/09/17 07:57:28;;;;;;;0.10;0.10;;;;;;;22.03;100.00;98929.13;5113825;28;20695;-58
2023/09/17 08:00:16;;;;;;;0.10;0.10;;;;;;;22.21;100.00;98927.03;5113487;28;20199;-58
2023/09/17 08:03:02;;;;;;;0.10;0.10;;;;;;;22.39;100.00;98910.56;5114632;28;20317;-58
2023/09/17 08:05:50;;;;;;;0.10;0.10;;;;;;;22.63;100.00;98909.50;5114531;28;20202;-58
2023/09/17 08:08:37;;;;;;;0.10;0.10;;;;;;;22.75;100.00;98916.16;5114371;28;20186;-58
2023/09/17 08:11:29;;;;;;;0.10;0.10;;;;;;;22.52;100.00;98918.03;5114551;28;20190;-58
2023/09/17 08:14:16;;;;;;;0.10;0.10;;;;;;;22.55;100.00;98907.72;5113619;28;20308;-58
2023/09/17 08:17:04;;;;;;;0.10;0.10;;;;;;;22.78;100.00;98910.41;5114435;28;20216;-57
2023/09/17 08:19:51;;;;;;;0.10;0.10;;;;;;;22.95;100.00;98911.09;5114303;28;20186;-59
2023/09/17 08:22:38;;;;;;;0.10;0.10;;;;;;;23.11;100.00;98904.72;5114058;28;20272;-58
2023/09/17 08:25:27;;;;;;;0.10;0.10;;;;;;;23.27;100.00;98901.84;5114084;28;20194;-58
2023/09/17 08:28:15;;;;;;;0.10;0.10;;;;;;;23.59;100.00;98907.94;5114261;28;20194;-58
2023/09/17 08:31:02;;;;;;;0.10;0.10;;;;;;;23.62;100.00;98904.84;5112650;28;20199;-57
2023/09/17 08:33:49;;;;;;;0.10;0.10;;;;;;;23.93;100.00;98902.75;5114182;28;20758;-58
2023/09/17 08:36:37;;;;;;;0.10;0.10;;;;;;;23.40;100.00;98910.13;5114033;28;20185;-57
2023/09/17 08:39:25;;;;;;;0.10;0.10;;;;;;;23.41;100.00;98910.97;5113541;28;20205;-57
2023/09/17 08:42:12;;;;;;;0.10;0.10;;;;;;;23.70;100.00;98916.41;5113983;28;20244;-58
2023/09/17 08:45:03;;;;;;;0.10;0.10;;;;;;;23.55;100.00;98914.72;5112591;28;20194;-58
2023/09/17 08:47:50;;;;;;;0.10;0.10;;;;;;;23.91;100.00;98906.66;5114046;28;20232;-58
2023/09/17 08:50:38;;;;;;;0.10;0.10;;;;;;;23.99;100.00;98912.81;5114015;28;20268;-57
2023/09/17 08:53:31;;;;;;;0.10;0.10;;;;;;;23.95;100.00;98906.09;5114111;28;20740;-58
2023/09/17 08:56:19;;;;;;;0.10;0.10;;;;;;;24.22;100.00;98907.25;5113860;28;20186;-58
2023/09/17 08:59:10;;;;;;;0.10;0.10;;;;;;;24.19;100.00;98912.19;5112635;28;20226;-58
2023/09/17 09:02:03;;;;;;;0.00;0.00;;;;;;;24.28;100.00;98898.34;5113868;28;20186;-58
2023/09/17 09:04:51;;;;;;;0.10;0.10;;;;;;;24.65;100.00;98893.75;5113424;28;20264;-58
2023/09/17 09:07:39;;;;;;;0.10;0.10;;;;;;;25.06;100.00;98896.59;5112846;28;20179;-58
2023/09/17 09:10:27;;;;;;;0.00;0.00;;;;;;;24.91;100.00;98892.28;5113578;28;20202;-58
2023/09/17 09:13:13;;;;;;;0.10;0.10;;;;;;;24.87;100.00;98899.97;5113405;28;20185;-58
2023/09/17 09:16:00;;;;;;;0.10;0.10;;;;;;;24.79;100.00;98900.09;5112173;28;20560;-58
2023/09/17 09:18:49;;;;;;;0.10;0.10;;;;;;;24.68;100.00;98890.63;5113211;28;20237;-58
2023/09/17 09:21:36;;;;;;;0.10;0.10;;;;;;;25.08;100.00;98894.50;5113341;28;20197;-58
2023/09/17 09:24:24;;;;;;;0.10;0.10;;;;;;;25.20;100.00;98894.81;5113494;28;20197;-58
2023/09/17 09:27:11;;;;;;;0.10;0.10;;;;;;;25.32;100.00;98897.81;5112212;28;20511;-58
2023/09/17 09:29:58;;;;;;;0.10;0.10;;;;;;;25.81;100.00;98903.13;5112155;28;20236;-58
2023/09/17 09:32:46;;;;;;;0.10;0.10;;;;;;;25.54;100.00;98893.97;5113257;28;20541;-58
2023/09/17 09:35:34;;;;;;;0.10;0.10;;;;;;;25.75;100.00;98893.06;5113007;28;20706;-58
2023/09/17 09:38:21;;;;;;;0.10;0.10;;;;;;;26.02;100.00;98896.72;5113061;28;20308;-58
2023/09/17 09:41:08;;;;;;;0.10;0.10;;;;;;;26.14;100.00;98896.94;5112990;28;20701;-58
2023/09/17 09:43:59;;;;;;;0.10;0.10;;;;;;;26.64;100.00;98903.78;5113028;28;20272;-58
2023/09/17 09:46:46;;;;;;;0.10;0.10;;;;;;;26.83;100.00;98893.97;5113301;28;20669;-58
2023/09/17 09:49:40;;;;;;;0.10;0.10;;;;;;;26.62;100.00;98892.25;5113157;28;20284;-58
2023/09/17 09:52:28;;;;;;;0.10;0.10;;;;;;;27.15;100.00;98886.03;5113033;28;20210;-58
2023/09/17 09:55:15;;;;;;;0.10;0.10;;;;;;;27.31;100.00;98883.69;5113133;28;20210;-58
2023/09/17 09:58:02;;;;;;;0.10;0.10;;;;;;;27.21;100.00;98885.16;5112980;28;20190;-58
2023/09/17 10:00:49;;;;;;;0.10;0.10;;;;;;;27.73;100.00;98891.56;5111574;28;20312;-58
2023/09/17 10:03:36;;;;;;;0.10;0.10;;;;;;;27.66;100.00;98883.41;5112773;28;20213;-58
2023/09/17 10:06:24;;;;;;;0.10;0.10;;;;;;;28.40;100.00;98882.03;5112691;28;20214;-58
2023/09/17 10:09:15;;;;;;;0.10;0.10;;;;;;;29.47;99.72;98888.25;5113084;28;20737;-58
2023/09/17 10:12:03;;;;;;;0.00;0.00;;;;;;;31.43;83.82;98878.44;5113149;28;20251;-59
2023/09/17 10:14:50;;;;;;;0.10;0.10;;;;;;;32.39;74.52;98883.19;5111674;28;20278;-58
2023/09/17 10:17:38;;;;;;;0.00;0.00;;;;;;;32.51;72.84;98874.91;5112942;28;20251;-58
2023/09/17 10:20:26;;;;;;;0.00;0.00;;;;;;;33.12;66.95;98880.63;5115604;28;20210;-58
2023/09/17 10:23:15;;;;;;;0.00;0.00;;;;;;;33.26;63.97;98876.41;5116258;28;20225;-58
2023/09/17 10:26:04;;;;;;;0.00;0.00;;;;;;;35.27;56.00;98885.53;5116836;28;20198;-57
2023/09/17 10:28:52;;;;;;;0.00;0.00;;;;;;;34.94;54.94;98883.94;5116472;28;20198;-58
2023/09/17 10:31:41;;;;;;;0.00;0.00;;;;;;;33.96;57.41;98886.75;5115843;28;20206;-58
2023/09/17 10:34:30;;;;;;;0.00;0.00;;;;;;;34.98;55.95;98877.63;5115978;28;20206;-58
2023/09/17 10:37:20;;;;;;;0.00;0.00;;;;;;;34.17;58.36;98873.25;5116422;28;20218;-58
2023/09/17 10:40:10;;;;;;;0.00;0.00;;;;;;;35.17;52.94;98880.78;5116003;28;20217;-58
2023/09/17 10:43:01;;;;;;;0.00;0.00;;;;;;;35.55;52.20;98873.31;5116345;28;20313;-58
2023/09/17 10:45:50;;;;;;;0.00;0.00;;;;;;;34.66;53.65;98882.28;5114938;28;20202;-58
2023/09/17 10:48:40;;;;;;;0.00;0.00;;;;;;;34.71;53.49;98871.31;5116228;28;20206;-58
2023/09/17 10:51:28;;;;;;;0.00;0.00;;;;;;;34.78;54.13;98865.59;5116151;28;20198;-58
2023/09/17 10:54:15;;;;;;;0.00;0.00;;;;;;;36.32;50.14;98855.97;5116146;28;20194;-57
2023/09/17 10:57:07;;;;;;;0.00;0.00;;;;;;;37.11;45.97;98862.91;5115925;28;20685;-58
2023/09/17 10:59:57;;;;;;;0.00;0.00;;;;;;;36.56;48.64;98856.28;5114462;28;20333;-58
2023/09/17 11:02:49;;;;;;;0.00;0.00;;;;;;;37.01;45.25;98859.34;5116034;28;20229;-58
2023/09/17 11:05:36;;;;;;;0.00;0.00;;;;;;;37.21;44.15;98867.59;5116011;28;20260;-58
2023/09/17 11:08:24;;;;;;;0.00;0.00;;;;;;;36.94;45.53;98859.63;5115899;28;20552;-58
2023/09/17 11:11:15;;;;;;;0.00;0.00;;;;;;;37.92;43.61;98848.03;5115750;28;20277;-58
2023/09/17 11:14:04;;;;;;;0.00;0.00;;;;;;;37.78;43.95;98850.59;5115758;28;20259;-58
2023/09/17 11:16:52;;;;;;;0.00;0.00;;;;;;;37.44;44.15;98855.13;5115659;28;20208;-58
2023/09/17 11:19:39;;;;;;;0.00;0.00;;;;;;;36.08;47.59;98847.34;5115473;28;20238;-58
2023/09/17 11:22:28;;;;;;;0.00;0.00;;;;;;;36.96;45.93;98844.44;5115287;28;20226;-58
2023/09/17 11:25:32;;;;;;;0.00;0.00;;;;;;;36.10;46.23;98845.16;5115448;28;20202;-58
2023/09/17 11:28:19;;;;;;;0.00;0.00;;;;;;;36.49;45.89;98849.41;5115260;28;20220;-58
2023/09/17 11:31:09;;;;;;;0.00;0.00;;;;;;;35.91;47.95;98843.19;5112914;28;20297;-58
2023/09/17 11:33:58;;;;;;;0.00;0.00;;;;;;;36.75;46.68;98836.41;5115437;28;20252;-58
2023/09/17 11:36:46;;;;;;;0.00;0.00;;;;;;;37.84;44.83;98840.34;5115110;28;20198;-58
2023/09/17 11:39:33;;;;;;;0.00;0.00;;;;;;;39.04;41.03;98841.72;5114903;28;20309;-58
2023/09/17 11:42:23;;;;;;;0.00;0.00;;;;;;;38.91;40.09;98834.94;5114328;28;20202;-58
2023/09/17 11:45:11;;;;;;;0.00;0.00;;;;;;;39.96;37.74;98835.97;5113834;28;20198;-58
2023/09/17 11:47:58;;;;;;;0.00;0.00;;;;;;;38.75;38.75;98827.03;5114900;28;20293;-58
2023/09/17 11:50:47;;;;;;;0.00;0.00;;;;;;;38.65;39.40;98828.75;5115136;28;20444;-58
2023/09/17 11:53:49;;;;;;;0.00;0.00;;;;;;;38.27;39.14;98824.06;5114926;28;20198;-58
2023/09/17 11:56:46;;;;;;;0.00;0.00;;;;;;;37.20;43.21;98825.31;5114935;28;20190;-58
2023/09/17 11:59:38;;;;;;;0.00;0.00;;;;;;;38.61;40.36;98824.09;5113240;28;20222;-58
2023/09/17 12:02:25;;;;;;;0.00;0.00;;;;;;;38.06;40.70;98820.59;5113759;28;20240;-58
2023/09/17 12:05:12;;;;;;;0.00;0.00;;;;;;;37.06;41.27;98821.50;5114728;28;20198;-58
2023/09/17 12:08:01;;;;;;;0.00;0.00;;;;;;;39.08;38.12;98815.06;5114306;28;20198;-58
2023/09/17 12:10:52;;;;;;;0.00;0.00;;;;;;;37.59;39.82;98816.38;5114763;28;20267;-58
2023/09/17 12:13:39;;;;;;;0.00;0.00;;;;;;;37.35;40.78;98809.81;5114357;28;20193;-58
2023/09/17 12:16:27;;;;;;;0.00;0.00;;;;;;;36.82;42.04;98821.22;5113268;28;20421;-58
2023/09/17 12:19:15;;;;;;;0.00;0.00;;;;;;;38.04;39.70;98818.13;5114360;28;20202;-58
2023/09/17 12:22:09;;;;;;;0.00;0.00;;;;;;;37.20;41.39;98821.72;5113507;28;20309;-58
2023/09/17 12:25:03;;;;;;;0.00;0.00;;;;;;;38.89;38.37;98811.38;5114220;28;20297;-59
2023/09/17 12:27:50;;;;;;;0.00;0.00;;;;;;;39.50;36.10;98807.97;5114248;28;20198;-59
2023/09/17 12:30:37;;;;;;;0.00;0.00;;;;;;;39.45;37.31;98808.03;5112854;28;20224;-58
2023/09/17 12:33:24;;;;;;;0.00;0.00;;;;;;;39.22;37.93;98804.97;5114183;28;20183;-58
2023/09/17 12:36:12;;;;;;;0.00;0.00;;;;;;;38.91;37.47;98798.09;5114140;28;20204;-58
2023/09/17 12:39:00;;;;;;;0.00;0.00;;;;;;;39.88;36.77;98800.56;5113918;28;20190;-58
2023/09/17 12:41:49;;;;;;;0.00;0.00;;;;;;;38.68;38.31;98826.53;5113833;28;20182;-58
2023/09/17 12:44:39;;;;;;;0.00;0.00;;;;;;;38.84;37.49;98815.03;5112634;28;20274;-58
2023/09/17 12:47:27;;;;;;;0.00;0.00;;;;;;;37.29;40.58;98811.75;5113685;28;20541;-58
2023/09/17 12:50:14;;;;;;;0.00;0.00;;;;;;;38.17;39.85;98802.81;5113836;28;20190;-58
2023/09/17 12:53:01;;;;;;;0.00;0.00;;;;;;;38.02;40.76;98806.47;5113924;28;20264;-58
2023/09/17 12:55:48;;;;;;;0.00;0.00;;;;;;;37.12;41.80;98814.00;5113671;28;20193;-58
2023/09/17 12:58:37;;;;;;;0.00;0.00;;;;;;;36.74;42.21;98799.69;5113500;28;20202;-58
2023/09/17 13:01:24;;;;;;;0.00;0.00;;;;;;;35.73;44.38;98798.44;5112116;28;20214;-58
2023/09/17 13:04:10;;;;;;;0.00;0.00;;;;;;;36.66;43.27;98801.06;5113156;28;20198;-58